DLH122 EDDF-VHHH
Flight info
| Callsign | DLH122 |
|---|---|
| Flight time | N/A |
| Altitude | 33000 |
| Route | SULUS7S SULUS Z650 VEMUT DCT PEPIK DCT NORAH DCT BUDOP DCT LUGEB DCT UDROS UM859 KARDE UL851 TBN UM11 EKTES/N0491F350 UM11 REBLO M11 LUSAL N199 RASAM L88 METKA B476 DARVA/K0907F350 T898 OGOLI N193 SR L163 TISIB L141 MALEX/K0906F370 L141 KAMUD/K0907S1130 W186 SADAN Y1 OMBON W245 OVRAL B330 QNX/K0915S1190 B330 KWE W181 DUDIT A599 POU R473 SIERA |
| Aircraft | A35K/H-SDE2E3GHIJ3J4J5LM1ORWXY/LB1D1 |
Departure
| Time | N/A |
|---|---|
| Airport | Frankfurt Main Airport (EDDF) |
Arrival
| Time | 2026-05-04 05:47 |
|---|---|
| Airport | Hong Kong International Airport (VHHH) |
| Time | Latitude | Longitude | Altitude | Speed | Heading |
|---|---|---|---|---|---|
| 2026-05-04 05:24 | 21.90712 | 113.51507 | 21726 ft | 356 kts | 208° |
| 2026-05-04 05:24 | 21.88481 | 113.50383 | 21350 ft | 352 kts | 208° |
| 2026-05-04 05:24 | 21.86370 | 113.49326 | 20979 ft | 348 kts | 208° |
| 2026-05-04 05:25 | 21.85431 | 113.48857 | 20823 ft | 346 kts | 208° |
| 2026-05-04 05:25 | 21.83479 | 113.47884 | 20488 ft | 343 kts | 208° |
| 2026-05-04 05:25 | 21.81324 | 113.46812 | 20115 ft | 340 kts | 208° |
| 2026-05-04 05:25 | 21.79186 | 113.45749 | 19736 ft | 337 kts | 208° |
| 2026-05-04 05:26 | 21.77061 | 113.44695 | 19440 ft | 331 kts | 208° |
| 2026-05-04 05:26 | 21.75006 | 113.43678 | 19321 ft | 319 kts | 209° |
| 2026-05-04 05:26 | 21.73021 | 113.42719 | 19193 ft | 308 kts | 206° |
| 2026-05-04 05:26 | 21.70990 | 113.42154 | 19063 ft | 306 kts | 190° |
| 2026-05-04 05:27 | 21.68851 | 113.42334 | 18709 ft | 316 kts | 170° |
| 2026-05-04 05:28 | 21.56975 | 113.54021 | 15908 ft | 332 kts | 141° |
| 2026-05-04 05:29 | 21.55532 | 113.55957 | 15593 ft | 336 kts | 124° |
| 2026-05-04 05:29 | 21.54854 | 113.58373 | 15268 ft | 343 kts | 95° |
| 2026-05-04 05:29 | 21.55240 | 113.60885 | 14935 ft | 343 kts | 66° |
| 2026-05-04 05:29 | 21.56607 | 113.62930 | 14601 ft | 336 kts | 37° |
| 2026-05-04 05:31 | 21.68658 | 113.74252 | 12343 ft | 330 kts | 39° |
| 2026-05-04 05:31 | 21.70361 | 113.75890 | 12034 ft | 327 kts | 39° |
| 2026-05-04 05:32 | 21.72042 | 113.77517 | 11732 ft | 324 kts | 39° |
| 2026-05-04 05:32 | 21.73717 | 113.79146 | 11397 ft | 321 kts | 40° |
| 2026-05-04 05:32 | 21.75369 | 113.80756 | 11064 ft | 319 kts | 40° |
| 2026-05-04 05:33 | 21.78620 | 113.83937 | 10429 ft | 317 kts | 40° |
| 2026-05-04 05:33 | 21.80251 | 113.85528 | 10122 ft | 315 kts | 40° |
| 2026-05-04 05:33 | 21.81865 | 113.87106 | 9792 ft | 312 kts | 40° |
| 2026-05-04 05:33 | 21.83535 | 113.88573 | 9457 ft | 307 kts | 29° |
| 2026-05-04 05:34 | 21.85498 | 113.89338 | 9158 ft | 297 kts | 2° |
| 2026-05-04 05:34 | 21.87502 | 113.89106 | 8868 ft | 287 kts | 338° |
| 2026-05-04 05:34 | 21.89339 | 113.88288 | 8564 ft | 284 kts | 332° |
| 2026-05-04 05:34 | 21.91095 | 113.87395 | 8409 ft | 273 kts | 331° |
| 2026-05-04 05:35 | 21.92767 | 113.86547 | 8234 ft | 256 kts | 330° |
| 2026-05-04 05:35 | 21.94326 | 113.85764 | 8032 ft | 239 kts | 330° |
| 2026-05-04 05:35 | 21.95775 | 113.85039 | 7863 ft | 220 kts | 330° |
| 2026-05-04 05:35 | 21.97122 | 113.84365 | 7621 ft | 209 kts | 329° |
| 2026-05-04 05:36 | 21.98420 | 113.83703 | 7216 ft | 204 kts | 329° |
| 2026-05-04 05:36 | 21.99710 | 113.83043 | 7027 ft | 214 kts | 330° |
| 2026-05-04 05:36 | 22.01079 | 113.82354 | 6958 ft | 221 kts | 331° |
| 2026-05-04 05:36 | 22.02444 | 113.81683 | 6789 ft | 206 kts | 331° |
| 2026-05-04 05:37 | 22.03719 | 113.81055 | 6392 ft | 202 kts | 331° |
| 2026-05-04 05:37 | 22.05010 | 113.80412 | 6187 ft | 213 kts | 331° |
| 2026-05-04 05:37 | 22.06391 | 113.79721 | 6124 ft | 221 kts | 331° |
| 2026-05-04 05:38 | 22.09160 | 113.78344 | 5475 ft | 220 kts | 332° |
| 2026-05-04 05:38 | 22.10550 | 113.77651 | 5216 ft | 221 kts | 332° |
| 2026-05-04 05:38 | 22.11944 | 113.76960 | 5029 ft | 219 kts | 333° |
| 2026-05-04 05:38 | 22.13331 | 113.76268 | 4992 ft | 220 kts | 333° |
| 2026-05-04 05:39 | 22.14756 | 113.75555 | 4989 ft | 234 kts | 333° |
| 2026-05-04 05:39 | 22.17067 | 113.74406 | 4994 ft | 205 kts | 332° |
| 2026-05-04 05:39 | 22.18342 | 113.73771 | 5000 ft | 199 kts | 332° |
| 2026-05-04 05:40 | 22.21222 | 113.72333 | 4455 ft | 196 kts | 332° |
| 2026-05-04 05:40 | 22.22068 | 113.71922 | 4197 ft | 198 kts | 334° |
| 2026-05-04 05:40 | 22.23415 | 113.71685 | 3758 ft | 198 kts | 8° |
| 2026-05-04 05:41 | 22.24613 | 113.72307 | 3379 ft | 191 kts | 39° |
| 2026-05-04 05:41 | 22.25599 | 113.73214 | 3103 ft | 179 kts | 42° |
| 2026-05-04 05:41 | 22.26520 | 113.74095 | 2609 ft | 179 kts | 43° |
| 2026-05-04 05:41 | 22.27439 | 113.74973 | 2136 ft | 172 kts | 43° |
| 2026-05-04 05:42 | 22.28176 | 113.75981 | 1684 ft | 171 kts | 63° |
| 2026-05-04 05:42 | 22.28606 | 113.77120 | 1502 ft | 155 kts | 71° |
| 2026-05-04 05:42 | 22.28936 | 113.78167 | 1501 ft | 143 kts | 71° |
| 2026-05-04 05:42 | 22.29260 | 113.79197 | 1498 ft | 146 kts | 71° |
| 2026-05-04 05:43 | 22.29589 | 113.80229 | 1497 ft | 146 kts | 71° |
| 2026-05-04 05:43 | 22.29911 | 113.81269 | 1469 ft | 147 kts | 73° |
| 2026-05-04 05:43 | 22.30216 | 113.82308 | 1309 ft | 144 kts | 72° |
| 2026-05-04 05:45 | 22.32445 | 113.89111 | 38 ft | 128 kts | 70° |
| 2026-05-04 05:45 | 22.32670 | 113.89822 | 39 ft | 71 kts | 71° |
| 2026-05-04 05:47 | 22.32793 | 113.90586 | 36 ft | 0 kts | 101° |
| 2026-05-04 05:47 | 22.32791 | 113.90596 | 36 ft | 3 kts | 101° |
| 2026-05-04 05:47 | 22.32786 | 113.90622 | 36 ft | 4 kts | 101° |
| 2026-05-04 05:48 | 22.32779 | 113.90658 | 37 ft | 5 kts | 101° |
| 2026-05-04 05:48 | 22.32778 | 113.90702 | 38 ft | 7 kts | 82° |
| 2026-05-04 05:48 | 22.32803 | 113.90794 | 38 ft | 18 kts | 71° |
| 2026-05-04 05:48 | 22.32857 | 113.90950 | 40 ft | 24 kts | 69° |
| 2026-05-04 05:49 | 22.32911 | 113.91122 | 41 ft | 25 kts | 71° |
| 2026-05-04 05:49 | 22.32968 | 113.91309 | 40 ft | 27 kts | 72° |
| 2026-05-04 05:49 | 22.33028 | 113.91505 | 41 ft | 28 kts | 72° |
| 2026-05-04 05:49 | 22.33084 | 113.91675 | 38 ft | 0 kts | 71° |
| 2026-05-04 05:51 | 22.32886 | 113.91341 | 40 ft | 20 kts | 251° |
| 2026-05-04 05:51 | 22.32838 | 113.91190 | 40 ft | 22 kts | 251° |
| 2026-05-04 05:52 | 22.32786 | 113.91024 | 38 ft | 25 kts | 251° |
| 2026-05-04 05:52 | 22.32728 | 113.90840 | 39 ft | 26 kts | 251° |
| 2026-05-04 05:52 | 22.32667 | 113.90646 | 38 ft | 29 kts | 251° |
| 2026-05-04 05:52 | 22.32606 | 113.90458 | 39 ft | 17 kts | 247° |
| 2026-05-04 05:53 | 22.32563 | 113.90412 | 40 ft | 9 kts | 204° |
| 2026-05-04 05:54 | 22.31807 | 113.90679 | 38 ft | 23 kts | 160° |
| 2026-05-04 05:55 | 22.31702 | 113.90717 | 38 ft | 12 kts | 162° |
| 2026-05-04 05:55 | 22.31612 | 113.90744 | 37 ft | 9 kts | 171° |
| 2026-05-04 05:55 | 22.31603 | 113.90748 | 37 ft | 6 kts | 154° |
| 2026-05-04 05:55 | 22.31599 | 113.90803 | 37 ft | 7 kts | 67° |
| 2026-05-04 05:56 | 22.31620 | 113.90855 | 39 ft | 8 kts | 67° |
| 2026-05-04 05:56 | 22.31640 | 113.90914 | 41 ft | 8 kts | 73° |
| 2026-05-04 05:56 | 22.31659 | 113.90980 | 41 ft | 10 kts | 73° |
| 2026-05-04 05:56 | 22.31684 | 113.91061 | 41 ft | 13 kts | 71° |
| 2026-05-04 05:57 | 22.31717 | 113.91164 | 41 ft | 16 kts | 71° |
| 2026-05-04 05:57 | 22.31730 | 113.91285 | 42 ft | 17 kts | 119° |
| 2026-05-04 05:57 | 22.31621 | 113.91344 | 42 ft | 20 kts | 160° |
| 2026-05-04 05:57 | 22.31485 | 113.91395 | 43 ft | 21 kts | 159° |
| 2026-05-04 05:58 | 22.31466 | 113.91523 | 42 ft | 20 kts | 72° |
| 2026-05-04 05:58 | 22.31515 | 113.91672 | 39 ft | 23 kts | 70° |
| 2026-05-04 05:58 | 22.31573 | 113.91849 | 36 ft | 26 kts | 70° |
| 2026-05-04 05:58 | 22.31613 | 113.91978 | 37 ft | 9 kts | 78° |
| 2026-05-04 05:59 | 22.31584 | 113.92034 | 36 ft | 10 kts | 150° |
| 2026-05-04 05:59 | 22.31500 | 113.92068 | 35 ft | 16 kts | 161° |
| 2026-05-04 05:59 | 22.31402 | 113.92163 | 35 ft | 23 kts | 116° |
| 2026-05-04 05:59 | 22.31331 | 113.92318 | 36 ft | 12 kts | 116° |
| 2026-05-04 06:00 | 22.31346 | 113.92378 | 35 ft | 9 kts | 37° |
| 2026-05-04 06:00 | 22.31384 | 113.92405 | 35 ft | 0 kts | 32° |